createdAt,value
2023-04-27T00:08:59.725Z,16.88
2023-04-27T00:19:09.357Z,16.65
2023-04-27T00:29:11.819Z,13.50
2023-04-27T00:39:17.006Z,11.10
2023-04-27T00:49:27.114Z,12.23
2023-04-27T00:59:29.468Z,13.80
2023-04-27T01:09:36.857Z,14.52
2023-04-27T01:19:40.554Z,14.13
2023-04-27T01:29:42.588Z,12.27
2023-04-27T01:39:51.572Z,11.85
2023-04-27T01:49:53.650Z,12.07
2023-04-27T01:59:55.617Z,13.50
2023-04-27T02:09:57.819Z,11.77
2023-04-27T02:20:02.800Z,13.32
2023-04-27T02:30:15.017Z,11.90
2023-04-27T02:40:17.396Z,12.55
2023-04-27T02:50:51.294Z,11.82
2023-04-27T03:00:57.094Z,12.77
2023-04-27T03:11:06.124Z,14.13
2023-04-27T03:21:09.749Z,16.27
2023-04-27T03:31:17.826Z,9.80
2023-04-27T03:41:39.985Z,13.05
2023-04-27T03:51:42.630Z,13.45
2023-04-27T04:01:45.689Z,12.77
2023-04-27T04:11:49.612Z,11.63
2023-04-27T04:21:51.541Z,11.45
2023-04-27T04:32:18.744Z,14.32
2023-04-27T04:42:29.852Z,12.18
2023-04-27T04:52:33.816Z,11.35
2023-04-27T05:02:37.048Z,12.32
2023-04-27T05:12:45.014Z,12.02
2023-04-27T05:22:46.966Z,11.65
2023-04-27T05:32:49.106Z,9.88
2023-04-27T05:42:51.280Z,15.45
2023-04-27T05:52:54.945Z,9.57
2023-04-27T06:02:56.993Z,11.25
2023-04-27T06:13:05.363Z,10.43
2023-04-27T06:23:10.944Z,10.88
2023-04-27T06:33:12.960Z,11.25
2023-04-27T06:43:17.192Z,14.75
2023-04-27T06:53:21.224Z,14.52
2023-04-27T07:03:36.209Z,16.33
2023-04-27T07:13:38.414Z,12.85
2023-04-27T07:23:41.914Z,11.70
2023-04-27T07:33:45.049Z,14.73
2023-04-27T07:43:48.613Z,16.42
2023-04-27T07:53:50.946Z,12.32
2023-04-27T08:03:53.202Z,13.60
2023-04-27T08:13:55.488Z,12.32
2023-04-27T08:24:17.552Z,11.65
2023-04-27T08:34:20.599Z,8.23
2023-04-27T08:44:23.601Z,6.82
2023-04-27T08:54:28.789Z,7.15
2023-04-27T09:04:38.632Z,4.25
2023-04-27T09:14:40.656Z,6.78
2023-04-27T09:24:53.314Z,5.72
2023-04-27T09:34:55.328Z,6.18
2023-04-27T09:44:58.509Z,7.53
2023-04-27T09:55:02.618Z,3.95
2023-04-27T10:05:30.962Z,5.15
2023-04-27T10:15:33.004Z,4.40
2023-04-27T10:25:43.272Z,7.45
2023-04-27T10:35:57.617Z,6.82
2023-04-27T10:46:26.258Z,7.65
2023-04-27T10:56:29.521Z,7.53
2023-04-27T11:06:59.412Z,6.63
2023-04-27T11:17:02.893Z,4.68
2023-04-27T11:27:07.664Z,6.80
2023-04-27T11:37:34.356Z,4.57
2023-04-27T11:47:36.410Z,4.32
2023-04-27T11:57:39.095Z,3.72
2023-04-27T12:07:41.600Z,3.22
2023-04-27T12:17:48.815Z,4.82
2023-04-27T12:27:56.161Z,4.53
2023-04-27T12:38:00.221Z,2.83
2023-04-27T12:48:14.726Z,5.30
2023-04-27T12:58:18.236Z,4.95
2023-04-27T13:08:20.811Z,4.70
2023-04-27T13:18:22.940Z,4.15
2023-04-27T13:28:24.919Z,4.57
2023-04-27T13:38:39.207Z,5.45
2023-04-27T13:48:47.449Z,5.88
2023-04-27T13:58:50.003Z,7.57
2023-04-27T14:08:53.650Z,3.22
2023-04-27T14:18:57.255Z,5.47
2023-04-27T14:29:07.214Z,1.65
2023-04-27T14:39:09.932Z,3.13
2023-04-27T14:49:12.053Z,6.53
2023-04-27T14:59:14.270Z,1.83
2023-04-27T15:09:16.546Z,5.97
2023-04-27T15:19:18.537Z,5.55
2023-04-27T15:29:20.589Z,5.28
2023-04-27T15:39:23.352Z,5.28
2023-04-27T15:49:26.593Z,8.00
2023-04-27T15:59:31.511Z,7.68
2023-04-27T16:09:33.449Z,5.30
2023-04-27T16:19:38.459Z,7.05
2023-04-27T16:29:42.001Z,8.88
2023-04-27T16:39:44.014Z,7.05
2023-04-27T16:49:48.225Z,3.78
2023-04-27T16:59:52.297Z,7.15
2023-04-27T17:09:56.450Z,6.00
2023-04-27T17:19:58.616Z,6.57
2023-04-27T17:30:03.596Z,6.55
2023-04-27T17:40:09.404Z,7.57
2023-04-27T17:50:22.312Z,9.10
2023-04-27T18:10:29.750Z,6.97
2023-04-27T18:20:38.731Z,8.45
2023-04-27T18:30:43.223Z,10.05
2023-04-27T18:40:49.357Z,13.43
2023-04-27T18:50:55.078Z,10.43
2023-04-27T19:01:21.756Z,14.88
2023-04-27T19:11:25.260Z,14.82
2023-04-27T19:21:27.935Z,12.07
2023-04-27T19:31:31.480Z,14.30
2023-04-27T19:41:42.821Z,19.52
2023-04-27T19:51:45.055Z,28.15
2023-04-27T20:01:47.328Z,36.53
2023-04-27T20:11:50.685Z,31.13
2023-04-27T20:21:52.886Z,25.95
2023-04-27T20:31:55.810Z,21.48
2023-04-27T20:42:00.386Z,29.98
2023-04-27T20:52:02.757Z,32.58
2023-04-27T21:02:06.252Z,31.67
2023-04-27T21:12:09.605Z,31.65
2023-04-27T21:22:12.688Z,31.40
2023-04-27T21:32:14.564Z,27.67
2023-04-27T21:42:18.499Z,37.20
2023-04-27T21:52:21.719Z,31.50
2023-04-27T22:02:24.079Z,31.10
2023-04-27T22:12:26.179Z,30.80
2023-04-27T22:22:32.236Z,29.83
2023-04-27T22:32:36.688Z,26.88
2023-04-27T22:42:38.770Z,26.23
2023-04-27T22:52:44.490Z,28.50
2023-04-27T23:02:47.643Z,26.40
2023-04-27T23:12:50.974Z,29.58
2023-04-27T23:22:57.486Z,25.55
2023-04-27T23:32:59.520Z,26.05
2023-04-27T23:43:01.781Z,26.05
2023-04-27T23:53:05.778Z,24.80
